Terminal Aerodrome Forecast
Issued by NWS Tampa Bay Area, FL

Home | Current Version | Previous Version | Text Only | Print | Product List | Glossary On
Versions: 1 2 3 4 5 6 7 8 9 10 11 12 13 14 15 16 17 18 19 20 21 22 23 24
000
FTUS42 KTBW 221951 AAB
TAFSRQ
TAF AMD
KSRQ 221951Z 2220/2318 13009KT P6SM VCTS FEW015CB SCT030 OVC060
     FM222200 12007KT P6SM VCSH SCT025 BKN070
     FM230300 10006KT P6SM SCT070 SCT250
     FM231400 12009KT P6SM SCT015 BKN250
     FM231700 15008KT P6SM VCTS SCT025CB BKN040=

USA.gov is the U.S. government's official web portal to all federal, state and local government web resources and services.